sensor_id;sensor_type;location;lat;lon;timestamp;P1;durP1;ratioP1;P2;durP2;ratioP2
60700;SDS011;46541;49.894;10.886;2022-08-19T00:02:00;26.50;;;22.80;;
60700;SDS011;46541;49.894;10.886;2022-08-19T00:04:29;29.67;;;23.52;;
60700;SDS011;46541;49.894;10.886;2022-08-19T00:06:58;23.50;;;21.00;;
60700;SDS011;46541;49.894;10.886;2022-08-19T00:09:26;28.52;;;22.42;;
60700;SDS011;46541;49.894;10.886;2022-08-19T00:11:54;25.35;;;22.45;;
60700;SDS011;46541;49.894;10.886;2022-08-19T00:14:22;27.95;;;22.02;;
60700;SDS011;46541;49.894;10.886;2022-08-19T00:16:50;25.10;;;22.08;;
60700;SDS011;46541;49.894;10.886;2022-08-19T00:19:20;27.33;;;23.63;;
60700;SDS011;46541;49.894;10.886;2022-08-19T00:21:48;25.30;;;22.60;;
60700;SDS011;46541;49.894;10.886;2022-08-19T00:24:15;28.38;;;23.30;;
60700;SDS011;46541;49.894;10.886;2022-08-19T00:26:43;23.83;;;21.27;;
60700;SDS011;46541;49.894;10.886;2022-08-19T00:29:12;24.33;;;20.83;;
60700;SDS011;46541;49.894;10.886;2022-08-19T00:31:40;24.63;;;21.83;;
60700;SDS011;46541;49.894;10.886;2022-08-19T00:34:09;30.25;;;21.67;;
60700;SDS011;46541;49.894;10.886;2022-08-19T00:36:38;25.90;;;22.08;;
60700;SDS011;46541;49.894;10.886;2022-08-19T00:39:05;23.63;;;20.45;;
60700;SDS011;46541;49.894;10.886;2022-08-19T00:41:32;26.15;;;22.05;;
60700;SDS011;46541;49.894;10.886;2022-08-19T00:46:36;25.93;;;20.93;;
60700;SDS011;46541;49.894;10.886;2022-08-19T00:49:10;26.55;;;22.48;;
60700;SDS011;46541;49.894;10.886;2022-08-19T00:51:40;25.63;;;22.25;;
60700;SDS011;46541;49.894;10.886;2022-08-19T00:54:11;25.80;;;21.73;;
60700;SDS011;46541;49.894;10.886;2022-08-19T00:56:38;29.23;;;23.42;;
60700;SDS011;46541;49.894;10.886;2022-08-19T00:59:06;26.77;;;21.92;;
60700;SDS011;46541;49.894;10.886;2022-08-19T01:01:39;27.98;;;21.85;;
60700;SDS011;46541;49.894;10.886;2022-08-19T01:04:07;23.70;;;21.20;;
60700;SDS011;46541;49.894;10.886;2022-08-19T01:06:38;27.40;;;21.13;;
60700;SDS011;46541;49.894;10.886;2022-08-19T01:09:10;27.13;;;22.55;;
60700;SDS011;46541;49.894;10.886;2022-08-19T01:11:38;24.60;;;21.90;;
60700;SDS011;46541;49.894;10.886;2022-08-19T01:14:09;25.77;;;22.05;;
60700;SDS011;46541;49.894;10.886;2022-08-19T01:16:37;24.95;;;20.90;;
60700;SDS011;46541;49.894;10.886;2022-08-19T01:19:26;25.15;;;21.48;;
60700;SDS011;46541;49.894;10.886;2022-08-19T01:21:58;27.88;;;21.35;;
60700;SDS011;46541;49.894;10.886;2022-08-19T01:27:15;29.33;;;24.13;;
60700;SDS011;46541;49.894;10.886;2022-08-19T01:29:43;24.67;;;21.17;;
60700;SDS011;46541;49.894;10.886;2022-08-19T01:32:12;24.25;;;21.60;;
60700;SDS011;46541;49.894;10.886;2022-08-19T01:34:58;25.20;;;22.45;;
60700;SDS011;46541;49.894;10.886;2022-08-19T01:37:28;26.95;;;23.15;;
60700;SDS011;46541;49.894;10.886;2022-08-19T01:39:56;24.65;;;22.02;;
60700;SDS011;46541;49.894;10.886;2022-08-19T01:42:23;28.75;;;22.85;;
60700;SDS011;46541;49.894;10.886;2022-08-19T01:44:55;25.50;;;22.40;;
60700;SDS011;46541;49.894;10.886;2022-08-19T01:47:23;26.55;;;21.50;;
60700;SDS011;46541;49.894;10.886;2022-08-19T01:49:50;27.35;;;21.33;;
60700;SDS011;46541;49.894;10.886;2022-08-19T01:52:17;25.40;;;22.38;;
60700;SDS011;46541;49.894;10.886;2022-08-19T01:54:44;25.23;;;22.15;;
60700;SDS011;46541;49.894;10.886;2022-08-19T01:57:11;25.60;;;21.45;;
60700;SDS011;46541;49.894;10.886;2022-08-19T01:59:41;26.52;;;22.65;;
60700;SDS011;46541;49.894;10.886;2022-08-19T02:02:10;25.13;;;22.27;;
60700;SDS011;46541;49.894;10.886;2022-08-19T02:04:37;25.90;;;21.80;;
60700;SDS011;46541;49.894;10.886;2022-08-19T02:07:05;26.33;;;21.08;;
60700;SDS011;46541;49.894;10.886;2022-08-19T02:09:34;24.38;;;21.33;;
60700;SDS011;46541;49.894;10.886;2022-08-19T02:12:02;27.30;;;22.50;;
60700;SDS011;46541;49.894;10.886;2022-08-19T02:14:29;26.02;;;21.38;;
60700;SDS011;46541;49.894;10.886;2022-08-19T02:16:56;26.35;;;21.80;;
60700;SDS011;46541;49.894;10.886;2022-08-19T02:19:23;26.60;;;21.40;;
60700;SDS011;46541;49.894;10.886;2022-08-19T02:21:49;27.48;;;22.42;;
60700;SDS011;46541;49.894;10.886;2022-08-19T02:24:16;28.02;;;22.20;;
60700;SDS011;46541;49.894;10.886;2022-08-19T02:26:43;29.25;;;22.27;;
60700;SDS011;46541;49.894;10.886;2022-08-19T02:29:10;28.27;;;22.27;;
60700;SDS011;46541;49.894;10.886;2022-08-19T02:31:37;29.30;;;23.30;;
60700;SDS011;46541;49.894;10.886;2022-08-19T02:34:04;25.10;;;22.27;;
60700;SDS011;46541;49.894;10.886;2022-08-19T02:36:31;27.67;;;22.35;;
60700;SDS011;46541;49.894;10.886;2022-08-19T02:38:58;25.10;;;20.95;;
60700;SDS011;46541;49.894;10.886;2022-08-19T02:41:27;25.92;;;21.88;;
60700;SDS011;46541;49.894;10.886;2022-08-19T02:43:56;26.35;;;22.05;;
60700;SDS011;46541;49.894;10.886;2022-08-19T02:46:45;26.17;;;22.02;;
60700;SDS011;46541;49.894;10.886;2022-08-19T02:49:13;27.10;;;22.95;;
60700;SDS011;46541;49.894;10.886;2022-08-19T02:51:43;28.80;;;22.05;;
60700;SDS011;46541;49.894;10.886;2022-08-19T02:54:11;29.50;;;21.60;;
60700;SDS011;46541;49.894;10.886;2022-08-19T02:56:40;27.17;;;21.88;;
60700;SDS011;46541;49.894;10.886;2022-08-19T02:59:07;27.60;;;22.40;;
60700;SDS011;46541;49.894;10.886;2022-08-19T03:01:37;27.50;;;22.48;;
60700;SDS011;46541;49.894;10.886;2022-08-19T03:04:06;27.35;;;21.80;;
60700;SDS011;46541;49.894;10.886;2022-08-19T03:06:37;29.85;;;23.00;;
60700;SDS011;46541;49.894;10.886;2022-08-19T03:09:05;28.13;;;22.13;;
60700;SDS011;46541;49.894;10.886;2022-08-19T03:11:32;30.58;;;23.13;;
60700;SDS011;46541;49.894;10.886;2022-08-19T03:13:59;31.30;;;23.33;;
60700;SDS011;46541;49.894;10.886;2022-08-19T03:16:27;26.33;;;22.33;;
60700;SDS011;46541;49.894;10.886;2022-08-19T03:18:59;26.92;;;22.83;;
60700;SDS011;46541;49.894;10.886;2022-08-19T03:21:28;33.40;;;24.60;;
60700;SDS011;46541;49.894;10.886;2022-08-19T03:23:57;28.83;;;23.10;;
60700;SDS011;46541;49.894;10.886;2022-08-19T03:26:27;29.27;;;22.80;;
60700;SDS011;46541;49.894;10.886;2022-08-19T03:28:55;29.65;;;23.02;;
60700;SDS011;46541;49.894;10.886;2022-08-19T03:31:25;30.02;;;23.42;;
60700;SDS011;46541;49.894;10.886;2022-08-19T03:34:14;28.35;;;21.80;;
60700;SDS011;46541;49.894;10.886;2022-08-19T03:36:44;28.42;;;21.95;;
60700;SDS011;46541;49.894;10.886;2022-08-19T03:39:12;28.20;;;22.08;;
60700;SDS011;46541;49.894;10.886;2022-08-19T03:41:40;26.42;;;21.63;;
60700;SDS011;46541;49.894;10.886;2022-08-19T03:44:14;28.48;;;23.05;;
60700;SDS011;46541;49.894;10.886;2022-08-19T03:46:45;29.70;;;22.88;;
60700;SDS011;46541;49.894;10.886;2022-08-19T03:49:15;26.83;;;22.17;;
60700;SDS011;46541;49.894;10.886;2022-08-19T03:51:45;30.23;;;23.67;;
60700;SDS011;46541;49.894;10.886;2022-08-19T03:54:13;29.52;;;24.05;;
60700;SDS011;46541;49.894;10.886;2022-08-19T03:56:42;27.90;;;22.55;;
60700;SDS011;46541;49.894;10.886;2022-08-19T03:59:15;29.73;;;22.73;;
60700;SDS011;46541;49.894;10.886;2022-08-19T04:01:46;29.67;;;23.63;;
60700;SDS011;46541;49.894;10.886;2022-08-19T04:04:13;31.63;;;24.10;;
60700;SDS011;46541;49.894;10.886;2022-08-19T04:06:39;29.80;;;22.30;;
60700;SDS011;46541;49.894;10.886;2022-08-19T04:09:08;31.88;;;24.52;;
60700;SDS011;46541;49.894;10.886;2022-08-19T04:11:37;32.28;;;24.60;;
60700;SDS011;46541;49.894;10.886;2022-08-19T04:14:14;34.10;;;23.88;;
60700;SDS011;46541;49.894;10.886;2022-08-19T04:16:46;29.97;;;23.50;;
60700;SDS011;46541;49.894;10.886;2022-08-19T04:19:14;31.17;;;25.45;;
60700;SDS011;46541;49.894;10.886;2022-08-19T04:21:43;32.45;;;25.38;;
60700;SDS011;46541;49.894;10.886;2022-08-19T04:24:11;34.25;;;24.05;;
60700;SDS011;46541;49.894;10.886;2022-08-19T04:26:38;30.23;;;24.15;;
60700;SDS011;46541;49.894;10.886;2022-08-19T04:29:13;29.83;;;24.35;;
60700;SDS011;46541;49.894;10.886;2022-08-19T04:31:42;30.92;;;24.73;;
60700;SDS011;46541;49.894;10.886;2022-08-19T04:34:11;32.72;;;24.52;;
60700;SDS011;46541;49.894;10.886;2022-08-19T04:36:40;29.20;;;24.90;;
60700;SDS011;46541;49.894;10.886;2022-08-19T04:39:09;29.65;;;23.80;;
60700;SDS011;46541;49.894;10.886;2022-08-19T04:41:38;30.23;;;23.65;;
60700;SDS011;46541;49.894;10.886;2022-08-19T04:44:23;28.25;;;23.20;;
60700;SDS011;46541;49.894;10.886;2022-08-19T04:46:50;34.78;;;25.08;;
60700;SDS011;46541;49.894;10.886;2022-08-19T04:49:19;29.80;;;24.92;;
60700;SDS011;46541;49.894;10.886;2022-08-19T04:51:51;33.53;;;24.58;;
60700;SDS011;46541;49.894;10.886;2022-08-19T04:54:21;28.45;;;23.02;;
60700;SDS011;46541;49.894;10.886;2022-08-19T04:57:04;28.92;;;22.90;;
60700;SDS011;46541;49.894;10.886;2022-08-19T04:59:34;28.77;;;22.77;;
60700;SDS011;46541;49.894;10.886;2022-08-19T05:02:02;32.47;;;24.27;;
60700;SDS011;46541;49.894;10.886;2022-08-19T05:04:30;26.90;;;22.05;;
60700;SDS011;46541;49.894;10.886;2022-08-19T05:06:58;31.40;;;23.10;;
60700;SDS011;46541;49.894;10.886;2022-08-19T05:09:28;30.77;;;22.77;;
60700;SDS011;46541;49.894;10.886;2022-08-19T05:12:15;29.50;;;23.30;;
60700;SDS011;46541;49.894;10.886;2022-08-19T05:14:43;31.13;;;23.67;;
60700;SDS011;46541;49.894;10.886;2022-08-19T05:17:12;30.05;;;22.77;;
60700;SDS011;46541;49.894;10.886;2022-08-19T05:19:59;31.95;;;24.58;;
60700;SDS011;46541;49.894;10.886;2022-08-19T05:22:46;29.23;;;23.40;;
60700;SDS011;46541;49.894;10.886;2022-08-19T05:25:15;30.65;;;23.85;;
60700;SDS011;46541;49.894;10.886;2022-08-19T05:27:45;30.80;;;22.25;;
60700;SDS011;46541;49.894;10.886;2022-08-19T05:30:13;29.10;;;22.75;;
60700;SDS011;46541;49.894;10.886;2022-08-19T05:32:40;28.35;;;22.00;;
60700;SDS011;46541;49.894;10.886;2022-08-19T05:35:07;27.88;;;23.23;;
60700;SDS011;46541;49.894;10.886;2022-08-19T05:37:35;37.88;;;22.80;;
60700;SDS011;46541;49.894;10.886;2022-08-19T05:40:02;29.90;;;23.33;;
60700;SDS011;46541;49.894;10.886;2022-08-19T05:42:30;27.88;;;22.35;;
60700;SDS011;46541;49.894;10.886;2022-08-19T05:44:57;28.08;;;21.88;;
60700;SDS011;46541;49.894;10.886;2022-08-19T05:47:24;32.10;;;24.30;;
60700;SDS011;46541;49.894;10.886;2022-08-19T05:49:51;30.35;;;21.67;;
60700;SDS011;46541;49.894;10.886;2022-08-19T05:52:18;27.40;;;21.27;;
60700;SDS011;46541;49.894;10.886;2022-08-19T05:54:51;30.25;;;23.42;;
60700;SDS011;46541;49.894;10.886;2022-08-19T05:57:21;27.95;;;21.08;;
60700;SDS011;46541;49.894;10.886;2022-08-19T05:59:49;28.23;;;22.98;;
60700;SDS011;46541;49.894;10.886;2022-08-19T06:02:24;28.50;;;21.50;;
60700;SDS011;46541;49.894;10.886;2022-08-19T06:04:57;30.17;;;22.15;;
60700;SDS011;46541;49.894;10.886;2022-08-19T06:07:23;31.92;;;23.02;;
60700;SDS011;46541;49.894;10.886;2022-08-19T06:09:51;30.83;;;23.95;;
60700;SDS011;46541;49.894;10.886;2022-08-19T06:12:29;30.17;;;22.85;;
60700;SDS011;46541;49.894;10.886;2022-08-19T06:15:02;27.60;;;22.42;;
60700;SDS011;46541;49.894;10.886;2022-08-19T06:17:37;29.13;;;22.27;;
60700;SDS011;46541;49.894;10.886;2022-08-19T06:20:08;27.30;;;22.30;;
60700;SDS011;46541;49.894;10.886;2022-08-19T06:22:40;28.55;;;22.25;;
60700;SDS011;46541;49.894;10.886;2022-08-19T06:25:08;27.35;;;22.00;;
60700;SDS011;46541;49.894;10.886;2022-08-19T06:27:36;31.63;;;22.60;;
60700;SDS011;46541;49.894;10.886;2022-08-19T06:30:18;27.98;;;21.40;;
60700;SDS011;46541;49.894;10.886;2022-08-19T06:32:45;29.60;;;22.20;;
60700;SDS011;46541;49.894;10.886;2022-08-19T06:35:12;28.95;;;21.88;;
60700;SDS011;46541;49.894;10.886;2022-08-19T06:37:40;30.02;;;22.33;;
60700;SDS011;46541;49.894;10.886;2022-08-19T06:40:09;28.20;;;21.73;;
60700;SDS011;46541;49.894;10.886;2022-08-19T06:42:38;30.60;;;22.48;;
60700;SDS011;46541;49.894;10.886;2022-08-19T06:45:20;29.40;;;22.33;;
60700;SDS011;46541;49.894;10.886;2022-08-19T06:47:50;32.60;;;23.25;;
60700;SDS011;46541;49.894;10.886;2022-08-19T06:50:25;27.15;;;22.50;;
60700;SDS011;46541;49.894;10.886;2022-08-19T06:52:52;27.25;;;20.58;;
60700;SDS011;46541;49.894;10.886;2022-08-19T06:55:20;28.15;;;21.65;;
60700;SDS011;46541;49.894;10.886;2022-08-19T06:57:47;28.80;;;20.95;;
60700;SDS011;46541;49.894;10.886;2022-08-19T07:00:14;26.67;;;20.92;;
60700;SDS011;46541;49.894;10.886;2022-08-19T07:02:42;25.92;;;21.15;;
60700;SDS011;46541;49.894;10.886;2022-08-19T07:05:20;27.55;;;21.45;;
60700;SDS011;46541;49.894;10.886;2022-08-19T07:07:47;27.40;;;19.95;;
60700;SDS011;46541;49.894;10.886;2022-08-19T07:10:16;24.05;;;19.23;;
60700;SDS011;46541;49.894;10.886;2022-08-19T07:12:43;24.35;;;19.65;;
60700;SDS011;46541;49.894;10.886;2022-08-19T07:15:10;25.40;;;19.90;;
60700;SDS011;46541;49.894;10.886;2022-08-19T07:17:38;25.80;;;19.88;;
60700;SDS011;46541;49.894;10.886;2022-08-19T07:20:07;23.67;;;19.38;;
60700;SDS011;46541;49.894;10.886;2022-08-19T07:22:39;24.52;;;19.85;;
60700;SDS011;46541;49.894;10.886;2022-08-19T07:25:07;26.50;;;20.67;;
60700;SDS011;46541;49.894;10.886;2022-08-19T07:27:35;22.60;;;18.67;;
60700;SDS011;46541;49.894;10.886;2022-08-19T07:30:05;25.35;;;20.08;;
60700;SDS011;46541;49.894;10.886;2022-08-19T07:32:36;24.40;;;18.92;;
60700;SDS011;46541;49.894;10.886;2022-08-19T07:35:04;23.77;;;17.77;;
60700;SDS011;46541;49.894;10.886;2022-08-19T07:37:32;24.38;;;18.30;;
60700;SDS011;46541;49.894;10.886;2022-08-19T07:40:00;22.08;;;17.73;;
60700;SDS011;46541;49.894;10.886;2022-08-19T07:42:27;25.10;;;18.50;;
60700;SDS011;46541;49.894;10.886;2022-08-19T07:44:56;21.77;;;18.15;;
60700;SDS011;46541;49.894;10.886;2022-08-19T07:47:24;21.98;;;17.23;;
60700;SDS011;46541;49.894;10.886;2022-08-19T07:50:11;22.10;;;17.17;;
60700;SDS011;46541;49.894;10.886;2022-08-19T07:52:38;22.70;;;17.27;;
60700;SDS011;46541;49.894;10.886;2022-08-19T07:55:06;23.88;;;16.67;;
60700;SDS011;46541;49.894;10.886;2022-08-19T07:57:54;22.35;;;17.80;;
60700;SDS011;46541;49.894;10.886;2022-08-19T08:00:22;19.85;;;16.65;;
60700;SDS011;46541;49.894;10.886;2022-08-19T08:02:50;18.23;;;16.33;;
60700;SDS011;46541;49.894;10.886;2022-08-19T08:05:21;19.10;;;16.63;;
60700;SDS011;46541;49.894;10.886;2022-08-19T08:08:09;17.63;;;15.55;;
60700;SDS011;46541;49.894;10.886;2022-08-19T08:10:55;20.67;;;16.63;;
60700;SDS011;46541;49.894;10.886;2022-08-19T08:13:23;20.38;;;16.55;;
60700;SDS011;46541;49.894;10.886;2022-08-19T08:15:51;21.05;;;16.23;;
60700;SDS011;46541;49.894;10.886;2022-08-19T08:18:20;20.10;;;16.40;;
60700;SDS011;46541;49.894;10.886;2022-08-19T08:20:53;19.63;;;16.38;;
60700;SDS011;46541;49.894;10.886;2022-08-19T08:23:23;18.88;;;16.15;;
60700;SDS011;46541;49.894;10.886;2022-08-19T08:25:56;19.15;;;16.00;;
60700;SDS011;46541;49.894;10.886;2022-08-19T08:28:24;20.15;;;16.90;;
60700;SDS011;46541;49.894;10.886;2022-08-19T08:30:55;18.80;;;16.48;;
60700;SDS011;46541;49.894;10.886;2022-08-19T08:33:24;20.17;;;15.45;;
60700;SDS011;46541;49.894;10.886;2022-08-19T08:36:09;19.60;;;15.85;;
60700;SDS011;46541;49.894;10.886;2022-08-19T08:38:37;21.65;;;16.85;;
60700;SDS011;46541;49.894;10.886;2022-08-19T08:44:02;20.05;;;16.88;;
60700;SDS011;46541;49.894;10.886;2022-08-19T08:46:34;17.05;;;14.75;;
60700;SDS011;46541;49.894;10.886;2022-08-19T08:49:06;19.85;;;16.77;;
60700;SDS011;46541;49.894;10.886;2022-08-19T08:51:43;20.67;;;16.27;;
60700;SDS011;46541;49.894;10.886;2022-08-19T08:54:26;19.65;;;15.38;;
60700;SDS011;46541;49.894;10.886;2022-08-19T08:57:02;19.95;;;16.20;;
60700;SDS011;46541;49.894;10.886;2022-08-19T08:59:33;23.80;;;16.13;;
60700;SDS011;46541;49.894;10.886;2022-08-19T09:02:02;16.83;;;14.95;;
60700;SDS011;46541;49.894;10.886;2022-08-19T09:04:30;17.83;;;15.13;;
60700;SDS011;46541;49.894;10.886;2022-08-19T09:10:04;18.83;;;15.25;;
60700;SDS011;46541;49.894;10.886;2022-08-19T09:15:36;17.98;;;14.48;;
60700;SDS011;46541;49.894;10.886;2022-08-19T09:18:08;19.42;;;15.18;;
60700;SDS011;46541;49.894;10.886;2022-08-19T09:20:44;17.60;;;13.57;;
60700;SDS011;46541;49.894;10.886;2022-08-19T09:23:14;16.83;;;15.02;;
60700;SDS011;46541;49.894;10.886;2022-08-19T09:25:41;18.20;;;15.32;;
60700;SDS011;46541;49.894;10.886;2022-08-19T09:28:08;17.15;;;13.98;;
60700;SDS011;46541;49.894;10.886;2022-08-19T09:30:47;15.38;;;13.40;;
60700;SDS011;46541;49.894;10.886;2022-08-19T09:33:18;16.27;;;13.77;;
60700;SDS011;46541;49.894;10.886;2022-08-19T09:35:46;14.93;;;13.38;;
60700;SDS011;46541;49.894;10.886;2022-08-19T09:38:19;16.77;;;14.00;;
60700;SDS011;46541;49.894;10.886;2022-08-19T09:40:46;14.38;;;12.88;;
60700;SDS011;46541;49.894;10.886;2022-08-19T09:43:13;16.00;;;13.10;;
60700;SDS011;46541;49.894;10.886;2022-08-19T09:45:58;14.13;;;12.73;;
60700;SDS011;46541;49.894;10.886;2022-08-19T09:48:26;15.77;;;13.98;;
60700;SDS011;46541;49.894;10.886;2022-08-19T09:50:53;14.13;;;12.63;;
60700;SDS011;46541;49.894;10.886;2022-08-19T09:53:20;19.00;;;14.18;;
60700;SDS011;46541;49.894;10.886;2022-08-19T09:55:50;14.73;;;13.18;;
60700;SDS011;46541;49.894;10.886;2022-08-19T09:58:17;17.23;;;13.75;;
60700;SDS011;46541;49.894;10.886;2022-08-19T10:00:51;18.10;;;13.80;;
60700;SDS011;46541;49.894;10.886;2022-08-19T10:03:20;16.67;;;14.40;;
60700;SDS011;46541;49.894;10.886;2022-08-19T10:05:50;17.75;;;14.88;;
60700;SDS011;46541;49.894;10.886;2022-08-19T10:08:30;15.98;;;14.27;;
60700;SDS011;46541;49.894;10.886;2022-08-19T10:11:00;17.23;;;14.40;;
60700;SDS011;46541;49.894;10.886;2022-08-19T10:13:48;17.98;;;14.75;;
60700;SDS011;46541;49.894;10.886;2022-08-19T10:16:17;18.55;;;15.25;;
60700;SDS011;46541;49.894;10.886;2022-08-19T10:18:51;18.95;;;15.38;;
60700;SDS011;46541;49.894;10.886;2022-08-19T10:21:25;21.17;;;15.55;;
60700;SDS011;46541;49.894;10.886;2022-08-19T10:23:58;18.60;;;14.32;;
60700;SDS011;46541;49.894;10.886;2022-08-19T10:26:29;21.85;;;16.10;;
60700;SDS011;46541;49.894;10.886;2022-08-19T10:28:58;17.40;;;15.05;;
60700;SDS011;46541;49.894;10.886;2022-08-19T10:31:27;19.73;;;16.23;;
60700;SDS011;46541;49.894;10.886;2022-08-19T10:34:15;21.95;;;16.92;;
60700;SDS011;46541;49.894;10.886;2022-08-19T10:36:53;20.58;;;17.88;;
60700;SDS011;46541;49.894;10.886;2022-08-19T10:39:27;25.15;;;16.42;;
60700;SDS011;46541;49.894;10.886;2022-08-19T10:41:56;22.40;;;17.17;;
60700;SDS011;46541;49.894;10.886;2022-08-19T10:44:23;19.70;;;17.27;;
60700;SDS011;46541;49.894;10.886;2022-08-19T10:46:58;20.80;;;16.80;;
60700;SDS011;46541;49.894;10.886;2022-08-19T10:49:26;20.63;;;17.42;;
60700;SDS011;46541;49.894;10.886;2022-08-19T10:51:54;20.77;;;18.20;;
60700;SDS011;46541;49.894;10.886;2022-08-19T10:54:45;20.50;;;16.42;;
60700;SDS011;46541;49.894;10.886;2022-08-19T10:57:34;25.10;;;19.75;;
60700;SDS011;46541;49.894;10.886;2022-08-19T11:00:21;20.33;;;16.83;;
60700;SDS011;46541;49.894;10.886;2022-08-19T11:02:49;19.60;;;17.35;;
60700;SDS011;46541;49.894;10.886;2022-08-19T11:05:17;20.85;;;17.40;;
60700;SDS011;46541;49.894;10.886;2022-08-19T11:07:45;19.67;;;17.58;;
60700;SDS011;46541;49.894;10.886;2022-08-19T11:10:12;19.55;;;17.58;;
60700;SDS011;46541;49.894;10.886;2022-08-19T11:12:46;22.88;;;17.42;;
60700;SDS011;46541;49.894;10.886;2022-08-19T11:15:13;25.95;;;21.77;;
60700;SDS011;46541;49.894;10.886;2022-08-19T11:17:40;18.90;;;16.88;;
60700;SDS011;46541;49.894;10.886;2022-08-19T11:20:08;19.50;;;16.42;;
60700;SDS011;46541;49.894;10.886;2022-08-19T11:22:36;19.83;;;17.77;;
60700;SDS011;46541;49.894;10.886;2022-08-19T11:25:07;21.20;;;19.08;;
60700;SDS011;46541;49.894;10.886;2022-08-19T11:27:41;21.35;;;18.98;;
60700;SDS011;46541;49.894;10.886;2022-08-19T11:30:10;21.33;;;17.13;;
60700;SDS011;46541;49.894;10.886;2022-08-19T11:32:42;21.40;;;17.13;;
60700;SDS011;46541;49.894;10.886;2022-08-19T11:35:14;20.70;;;17.98;;
60700;SDS011;46541;49.894;10.886;2022-08-19T11:37:42;24.83;;;19.80;;
60700;SDS011;46541;49.894;10.886;2022-08-19T11:40:09;22.60;;;18.05;;
60700;SDS011;46541;49.894;10.886;2022-08-19T11:42:36;18.10;;;15.45;;
60700;SDS011;46541;49.894;10.886;2022-08-19T11:45:23;19.13;;;14.83;;
60700;SDS011;46541;49.894;10.886;2022-08-19T11:47:51;17.52;;;15.77;;
60700;SDS011;46541;49.894;10.886;2022-08-19T11:50:19;19.90;;;16.70;;
60700;SDS011;46541;49.894;10.886;2022-08-19T11:52:46;18.95;;;16.63;;
60700;SDS011;46541;49.894;10.886;2022-08-19T11:55:13;18.52;;;15.82;;
60700;SDS011;46541;49.894;10.886;2022-08-19T11:57:40;16.85;;;14.93;;
60700;SDS011;46541;49.894;10.886;2022-08-19T12:00:09;17.42;;;15.48;;
60700;SDS011;46541;49.894;10.886;2022-08-19T12:02:38;14.43;;;12.93;;
60700;SDS011;46541;49.894;10.886;2022-08-19T12:05:06;14.10;;;12.38;;
60700;SDS011;46541;49.894;10.886;2022-08-19T12:07:37;17.92;;;15.23;;
60700;SDS011;46541;49.894;10.886;2022-08-19T12:10:06;19.30;;;15.38;;
60700;SDS011;46541;49.894;10.886;2022-08-19T12:12:33;17.33;;;13.95;;
60700;SDS011;46541;49.894;10.886;2022-08-19T12:15:00;16.95;;;14.10;;
60700;SDS011;46541;49.894;10.886;2022-08-19T12:17:28;16.10;;;13.90;;
60700;SDS011;46541;49.894;10.886;2022-08-19T12:19:56;18.35;;;14.82;;
60700;SDS011;46541;49.894;10.886;2022-08-19T12:22:23;16.80;;;14.48;;
60700;SDS011;46541;49.894;10.886;2022-08-19T12:24:50;16.23;;;13.48;;
60700;SDS011;46541;49.894;10.886;2022-08-19T12:27:19;14.20;;;12.80;;
60700;SDS011;46541;49.894;10.886;2022-08-19T12:32:33;17.08;;;13.57;;
60700;SDS011;46541;49.894;10.886;2022-08-19T12:35:01;16.25;;;12.75;;
60700;SDS011;46541;49.894;10.886;2022-08-19T12:37:29;13.70;;;12.40;;
60700;SDS011;46541;49.894;10.886;2022-08-19T12:39:57;13.57;;;12.18;;
60700;SDS011;46541;49.894;10.886;2022-08-19T12:42:25;15.07;;;12.05;;
60700;SDS011;46541;49.894;10.886;2022-08-19T12:44:51;15.85;;;11.95;;
60700;SDS011;46541;49.894;10.886;2022-08-19T12:47:19;16.42;;;12.48;;
60700;SDS011;46541;49.894;10.886;2022-08-19T12:49:47;20.98;;;16.15;;
60700;SDS011;46541;49.894;10.886;2022-08-19T12:52:21;25.13;;;19.48;;
60700;SDS011;46541;49.894;10.886;2022-08-19T12:54:50;31.73;;;21.50;;
60700;SDS011;46541;49.894;10.886;2022-08-19T12:57:24;24.90;;;20.13;;
60700;SDS011;46541;49.894;10.886;2022-08-19T12:59:59;24.63;;;19.08;;
60700;SDS011;46541;49.894;10.886;2022-08-19T13:02:30;20.27;;;16.70;;
60700;SDS011;46541;49.894;10.886;2022-08-19T13:05:04;19.10;;;14.15;;
60700;SDS011;46541;49.894;10.886;2022-08-19T13:07:34;19.35;;;16.83;;
60700;SDS011;46541;49.894;10.886;2022-08-19T13:10:03;16.85;;;14.98;;
60700;SDS011;46541;49.894;10.886;2022-08-19T13:12:31;13.85;;;12.50;;
60700;SDS011;46541;49.894;10.886;2022-08-19T13:14:58;14.82;;;12.57;;
60700;SDS011;46541;49.894;10.886;2022-08-19T13:17:25;16.55;;;14.73;;
60700;SDS011;46541;49.894;10.886;2022-08-19T13:19:53;15.20;;;13.60;;
60700;SDS011;46541;49.894;10.886;2022-08-19T13:22:19;14.63;;;12.57;;
60700;SDS011;46541;49.894;10.886;2022-08-19T13:24:46;16.40;;;14.05;;
60700;SDS011;46541;49.894;10.886;2022-08-19T13:27:15;16.92;;;13.32;;
60700;SDS011;46541;49.894;10.886;2022-08-19T13:29:42;15.10;;;12.73;;
60700;SDS011;46541;49.894;10.886;2022-08-19T13:32:28;14.57;;;13.07;;
60700;SDS011;46541;49.894;10.886;2022-08-19T13:35:15;13.90;;;12.15;;
60700;SDS011;46541;49.894;10.886;2022-08-19T13:37:43;14.10;;;11.88;;
60700;SDS011;46541;49.894;10.886;2022-08-19T13:42:45;13.65;;;10.60;;
60700;SDS011;46541;49.894;10.886;2022-08-19T13:45:18;12.60;;;11.15;;
60700;SDS011;46541;49.894;10.886;2022-08-19T13:47:47;15.32;;;10.85;;
60700;SDS011;46541;49.894;10.886;2022-08-19T13:50:19;14.30;;;10.68;;
60700;SDS011;46541;49.894;10.886;2022-08-19T13:52:48;13.10;;;10.98;;
60700;SDS011;46541;49.894;10.886;2022-08-19T13:55:15;15.45;;;10.55;;
60700;SDS011;46541;49.894;10.886;2022-08-19T13:57:54;14.83;;;10.40;;
60700;SDS011;46541;49.894;10.886;2022-08-19T14:00:22;15.32;;;10.68;;
60700;SDS011;46541;49.894;10.886;2022-08-19T14:02:53;13.27;;;9.55;;
60700;SDS011;46541;49.894;10.886;2022-08-19T14:05:22;10.75;;;9.65;;
60700;SDS011;46541;49.894;10.886;2022-08-19T14:07:49;10.85;;;9.75;;
60700;SDS011;46541;49.894;10.886;2022-08-19T14:10:16;12.88;;;9.23;;
60700;SDS011;46541;49.894;10.886;2022-08-19T14:12:45;11.52;;;10.00;;
60700;SDS011;46541;49.894;10.886;2022-08-19T14:15:13;14.77;;;12.05;;
60700;SDS011;46541;49.894;10.886;2022-08-19T14:17:44;9.15;;;8.25;;
60700;SDS011;46541;49.894;10.886;2022-08-19T14:20:14;8.65;;;7.10;;
60700;SDS011;46541;49.894;10.886;2022-08-19T14:22:44;9.40;;;7.57;;
60700;SDS011;46541;49.894;10.886;2022-08-19T14:25:14;12.55;;;6.85;;
60700;SDS011;46541;49.894;10.886;2022-08-19T14:27:46;7.93;;;7.05;;
60700;SDS011;46541;49.894;10.886;2022-08-19T14:30:15;8.50;;;7.70;;
60700;SDS011;46541;49.894;10.886;2022-08-19T14:32:44;7.32;;;6.57;;
60700;SDS011;46541;49.894;10.886;2022-08-19T14:35:11;7.95;;;7.10;;
60700;SDS011;46541;49.894;10.886;2022-08-19T14:37:41;11.43;;;6.70;;
60700;SDS011;46541;49.894;10.886;2022-08-19T14:40:11;7.93;;;6.80;;
60700;SDS011;46541;49.894;10.886;2022-08-19T14:42:40;26.77;;;17.45;;
60700;SDS011;46541;49.894;10.886;2022-08-19T14:45:08;10.60;;;8.23;;
60700;SDS011;46541;49.894;10.886;2022-08-19T14:47:36;8.63;;;6.78;;
60700;SDS011;46541;49.894;10.886;2022-08-19T14:50:07;8.23;;;7.05;;